Time;durP1;ratioP1;P1;durP2;ratioP2;P2;SDS_P1;SDS_P2;PMS_P1;PMS_P2;Temp;Humidity;BMP_temperature;BMP_pressure;BME280_temperature;BME280_humidity;BME280_pressure;Samples;Min_cycle;Max_cycle;Signal;HPM_P1;HPM_P2
2023/06/24 00:01:12;;;;;;;8.07;6.15;;;;;;;;;;5013526;28;20029;-78
2023/06/24 00:03:38;;;;;;;9.20;5.80;;;;;;;;;;5014951;28;20030;-78
2023/06/24 00:06:10;;;;;;;6.95;5.43;;;;;;;;;;5014189;28;20027;-80
2023/06/24 00:08:36;;;;;;;9.10;6.18;;;;;;;;;;5015239;28;20152;-80
2023/06/24 00:11:06;;;;;;;9.30;6.03;;;;;;;;;;5002245;28;20038;-79
2023/06/24 00:13:33;;;;;;;6.93;5.53;;;;;;;;;;5018476;28;20021;-80
2023/06/24 00:15:59;;;;;;;8.02;5.32;;;;;;;;;;5017993;28;20034;-80
2023/06/24 00:18:29;;;;;;;10.35;6.22;;;;;;;;;;5016835;28;20030;-79
2023/06/24 00:20:55;;;;;;;10.05;5.78;;;;;;;;;;5022420;28;20046;-80
2023/06/24 00:23:25;;;;;;;8.82;5.63;;;;;;;;;;5019101;28;20037;-79
2023/06/24 00:25:58;;;;;;;7.55;5.68;;;;;;;;;;5017123;28;20045;-79
2023/06/24 00:28:24;;;;;;;;;;;;;;;;;;5018670;28;20041;-79
2023/06/24 00:30:50;;;;;;;8.20;5.60;;;;;;;;;;5018713;28;19940;-80
2023/06/24 00:33:20;;;;;;;7.82;5.78;;;;;;;;;;5017498;28;20018;-80
2023/06/24 00:35:56;;;;;;;7.97;6.43;;;;;;;;;;5016812;28;20093;-80
2023/06/24 00:38:22;;;;;;;8.48;6.20;;;;;;;;;;5017010;28;20034;-78
2023/06/24 00:40:48;;;;;;;7.78;5.88;;;;;;;;;;5016509;28;20038;-80
2023/06/24 00:43:17;;;;;;;9.23;5.68;;;;;;;;;;5016365;28;20087;-78
2023/06/24 00:45:43;;;;;;;6.55;5.43;;;;;;;;;;5016817;28;20038;-79
2023/06/24 00:48:09;;;;;;;9.98;6.38;;;;;;;;;;5016390;28;20034;-80
2023/06/24 00:50:37;;;;;;;8.70;6.63;;;;;;;;;;5015657;28;20018;-80
2023/06/24 00:53:03;;;;;;;13.30;7.28;;;;;;;;;;5017268;28;20034;-80
2023/06/24 00:55:31;;;;;;;12.88;7.20;;;;;;;;;;5016482;28;20054;-79
2023/06/24 00:57:59;;;;;;;8.73;6.65;;;;;;;;;;5018630;28;20063;-80
2023/06/24 01:00:26;;;;;;;10.43;6.93;;;;;;;;;;5017058;28;20030;-80
2023/06/24 01:02:52;;;;;;;8.90;6.97;;;;;;;;;;5016745;28;20181;-80
2023/06/24 01:05:23;;;;;;;8.45;7.03;;;;;;;;;;5033855;28;20049;-80
2023/06/24 01:07:54;;;;;;;13.88;7.22;;;;;;;;;;5016224;28;20060;-81
2023/06/24 01:10:23;;;;;;;10.88;7.70;;;;;;;;;;5022214;28;20023;-80
2023/06/24 01:12:49;;;;;;;9.30;7.18;;;;;;;;;;5016958;28;20026;-82
2023/06/24 01:15:15;;;;;;;8.95;6.53;;;;;;;;;;5015851;28;20046;-80
2023/06/24 01:17:48;;;;;;;9.00;7.10;;;;;;;;;;5016859;28;20046;-79
2023/06/24 01:20:30;;;;;;;8.45;6.68;;;;;;;;;;5001021;28;20750;-80
2023/06/24 01:22:59;;;;;;;8.50;6.85;;;;;;;;;;5031166;28;20038;-79
2023/06/24 01:25:35;;;;;;;9.15;7.32;;;;;;;;;;5015618;28;20022;-81
2023/06/24 01:28:08;;;;;;;12.02;7.38;;;;;;;;;;5016498;28;20038;-80
2023/06/24 01:30:34;;;;;;;10.75;6.80;;;;;;;;;;5009011;28;20049;-81
2023/06/24 01:33:03;;;;;;;11.55;6.25;;;;;;;;;;5013347;28;20062;-80
2023/06/24 01:35:32;;;;;;;12.50;7.45;;;;;;;;;;5014331;28;20045;-80
2023/06/24 01:37:59;;;;;;;9.90;6.57;;;;;;;;;;5014195;28;20139;-81
2023/06/24 01:40:31;;;;;;;10.27;6.70;;;;;;;;;;5014393;28;20065;-81
2023/06/24 01:42:58;;;;;;;12.35;6.97;;;;;;;;;;5013590;28;20026;-81
2023/06/24 01:45:29;;;;;;;7.57;6.05;;;;;;;;;;5014224;28;20046;-79
2023/06/24 01:48:01;;;;;;;9.15;6.78;;;;;;;;;;5002466;28;20034;-80
2023/06/24 01:50:27;;;;;;;9.05;7.15;;;;;;;;;;5015220;28;20058;-79
2023/06/24 01:52:53;;;;;;;7.78;6.85;;;;;;;;;;5014631;28;20057;-79
2023/06/24 01:55:20;;;;;;;9.15;7.07;;;;;;;;;;5013583;28;20085;-81
2023/06/24 01:57:48;;;;;;;12.35;7.60;;;;;;;;;;5016914;28;20045;-80
2023/06/24 02:00:16;;;;;;;10.70;6.75;;;;;;;;;;5015067;28;20030;-79
2023/06/24 02:02:42;;;;;;;8.93;6.80;;;;;;;;;;5014039;28;20078;-81
2023/06/24 02:05:12;;;;;;;10.50;7.70;;;;;;;;;;5014380;28;20205;-80
2023/06/24 02:07:43;;;;;;;8.80;7.00;;;;;;;;;;5013552;28;20054;-81
2023/06/24 02:10:12;;;;;;;11.55;8.88;;;;;;;;;;5021434;28;20102;-80
2023/06/24 02:12:39;;;;;;;10.73;7.57;;;;;;;;;;5013292;28;20069;-81
2023/06/24 02:15:07;;;;;;;12.10;7.57;;;;;;;;;;5013199;28;20057;-79
2023/06/24 02:17:33;;;;;;;10.70;6.90;;;;;;;;;;5014787;28;20114;-80
2023/06/24 02:20:03;;;;;;;9.02;7.55;;;;;;;;;;5012487;28;20053;-80
2023/06/24 02:22:29;;;;;;;10.35;8.05;;;;;;;;;;5003567;28;20010;-82
2023/06/24 02:24:56;;;;;;;13.43;7.03;;;;;;;;;;5013027;28;20034;-80
2023/06/24 02:27:30;;;;;;;14.43;8.38;;;;;;;;;;5012487;28;20033;-81
2023/06/24 02:29:57;;;;;;;11.13;7.47;;;;;;;;;;5012182;28;20022;-81
2023/06/24 02:32:23;;;;;;;10.88;7.45;;;;;;;;;;5014430;28;20030;-80
2023/06/24 02:34:49;;;;;;;9.55;7.38;;;;;;;;;;5012978;28;20473;-80
2023/06/24 02:37:15;;;;;;;9.57;7.85;;;;;;;;;;5012991;28;21247;-81
2023/06/24 02:39:44;;;;;;;8.82;7.40;;;;;;;;;;5012864;28;20029;-81
2023/06/24 02:42:11;;;;;;;11.40;7.97;;;;;;;;;;5014437;28;20093;-82
2023/06/24 02:44:38;;;;;;;11.00;8.32;;;;;;;;;;5020898;28;20038;-81
2023/06/24 02:47:04;;;;;;;11.60;8.30;;;;;;;;;;5014509;28;20034;-81
2023/06/24 02:49:31;;;;;;;12.55;8.90;;;;;;;;;;5014774;28;20054;-81
2023/06/24 02:51:57;;;;;;;12.40;8.23;;;;;;;;;;5012768;28;20010;-81
2023/06/24 02:54:24;;;;;;;12.00;8.68;;;;;;;;;;5012033;28;20029;-80
2023/06/24 02:56:50;;;;;;;12.55;8.27;;;;;;;;;;5011895;28;20680;-81
2023/06/24 02:59:16;;;;;;;14.63;9.07;;;;;;;;;;5013509;28;20082;-81
2023/06/24 03:01:45;;;;;;;13.85;9.02;;;;;;;;;;5003279;28;20030;-80
2023/06/24 03:04:11;;;;;;;13.05;8.35;;;;;;;;;;5014162;28;20042;-80
2023/06/24 03:06:39;;;;;;;11.75;8.82;;;;;;;;;;5013329;28;20030;-81
2023/06/24 03:09:07;;;;;;;16.65;9.07;;;;;;;;;;5012805;28;20038;-81
2023/06/24 03:11:40;;;;;;;11.73;8.68;;;;;;;;;;5012196;28;20030;-81
2023/06/24 03:14:07;;;;;;;9.95;8.63;;;;;;;;;;5012671;28;20030;-80
2023/06/24 03:16:34;;;;;;;14.50;9.68;;;;;;;;;;5011328;28;20042;-81
2023/06/24 03:19:00;;;;;;;11.70;8.80;;;;;;;;;;5011589;28;20073;-81
2023/06/24 03:21:28;;;;;;;11.70;9.32;;;;;;;;;;5027347;28;20041;-81
2023/06/24 03:23:54;;;;;;;14.85;8.77;;;;;;;;;;5009771;28;20096;-81
2023/06/24 03:26:20;;;;;;;12.80;8.27;;;;;;;;;;5010440;28;20041;-80
2023/06/24 03:28:46;;;;;;;14.55;8.75;;;;;;;;;;5010558;28;20102;-80
2023/06/24 03:31:15;;;;;;;14.30;8.55;;;;;;;;;;5012436;28;20034;-79
2023/06/24 03:33:44;;;;;;;13.48;9.05;;;;;;;;;;5028532;28;20023;-81
2023/06/24 03:36:10;;;;;;;13.55;9.15;;;;;;;;;;5012878;28;20106;-81
2023/06/24 03:38:36;;;;;;;13.50;8.80;;;;;;;;;;5010997;28;20030;-82
2023/06/24 03:41:03;;;;;;;10.80;8.50;;;;;;;;;;5011070;28;20034;-81
2023/06/24 03:43:31;;;;;;;13.18;9.95;;;;;;;;;;5012155;28;20030;-81
2023/06/24 03:45:57;;;;;;;14.32;9.88;;;;;;;;;;5010604;28;20144;-81
2023/06/24 03:48:23;;;;;;;12.20;9.00;;;;;;;;;;5013800;28;20030;-80
2023/06/24 03:50:49;;;;;;;11.68;9.45;;;;;;;;;;5016143;28;20093;-81
2023/06/24 03:53:17;;;;;;;13.43;9.68;;;;;;;;;;5018040;28;20037;-79
2023/06/24 03:55:43;;;;;;;15.40;9.27;;;;;;;;;;5017728;28;20026;-82
2023/06/24 03:58:17;;;;;;;12.18;9.40;;;;;;;;;;5016671;28;20057;-81
2023/06/24 04:00:44;;;;;;;11.65;9.40;;;;;;;;;;5015394;28;20048;-81
2023/06/24 04:03:10;;;;;;;15.02;9.40;;;;;;;;;;5016075;28;20042;-80
2023/06/24 04:05:36;;;;;;;11.95;9.45;;;;;;;;;;5016496;28;20018;-81
2023/06/24 04:08:05;;;;;;;15.32;9.18;;;;;;;;;;5017206;28;20034;-80
2023/06/24 04:10:32;;;;;;;13.70;10.63;;;;;;;;;;5021393;28;20034;-80
2023/06/24 04:12:58;;;;;;;11.75;9.65;;;;;;;;;;5015557;28;20031;-79
2023/06/24 04:15:24;;;;;;;13.15;10.30;;;;;;;;;;5015857;28;20018;-79
2023/06/24 04:17:50;;;;;;;14.68;10.50;;;;;;;;;;5030997;28;20042;-81
2023/06/24 04:20:18;;;;;;;15.02;9.40;;;;;;;;;;5032442;28;20026;-79
2023/06/24 04:22:44;;;;;;;13.88;10.48;;;;;;;;;;5015896;28;20069;-80
2023/06/24 04:25:11;;;;;;;17.77;11.68;;;;;;;;;;5032732;28;20027;-79
2023/06/24 04:27:37;;;;;;;15.43;11.15;;;;;;;;;;5017446;28;20072;-81
2023/06/24 04:30:04;;;;;;;16.27;9.65;;;;;;;;;;5016501;28;20029;-80
2023/06/24 04:32:30;;;;;;;16.20;11.82;;;;;;;;;;5016069;28;20034;-80
2023/06/24 04:34:56;;;;;;;16.65;12.45;;;;;;;;;;5031352;28;20034;-81
2023/06/24 04:37:22;;;;;;;13.40;10.88;;;;;;;;;;5015900;28;20022;-81
2023/06/24 04:39:48;;;;;;;20.67;9.43;;;;;;;;;;5016498;28;20041;-80
2023/06/24 04:42:15;;;;;;;17.67;12.05;;;;;;;;;;5015938;28;20034;-82
2023/06/24 04:44:41;;;;;;;17.60;12.50;;;;;;;;;;5013405;28;20504;-82
2023/06/24 04:47:07;;;;;;;19.63;10.02;;;;;;;;;;5013287;28;20104;-81
2023/06/24 04:49:33;;;;;;;17.95;11.60;;;;;;;;;;5021023;28;20962;-80
2023/06/24 04:52:03;;;;;;;18.63;12.05;;;;;;;;;;5013059;28;20027;-81
2023/06/24 04:54:29;;;;;;;16.05;11.85;;;;;;;;;;5014532;28;20061;-81
2023/06/24 04:56:57;;;;;;;15.73;12.25;;;;;;;;;;5013001;28;20034;-80
2023/06/24 04:59:23;;;;;;;18.63;13.18;;;;;;;;;;5028377;28;20029;-80
2023/06/24 05:01:49;;;;;;;16.65;11.77;;;;;;;;;;5013936;28;20035;-80
2023/06/24 05:04:16;;;;;;;18.35;11.68;;;;;;;;;;5021358;28;20034;-81
2023/06/24 05:06:42;;;;;;;14.50;9.90;;;;;;;;;;5013604;28;20034;-78
2023/06/24 05:09:13;;;;;;;17.83;10.73;;;;;;;;;;5015193;28;20094;-80
2023/06/24 05:11:39;;;;;;;15.95;10.48;;;;;;;;;;5016447;28;20023;-79
2023/06/24 05:14:05;;;;;;;14.38;10.40;;;;;;;;;;5014658;28;20146;-80
2023/06/24 05:16:31;;;;;;;10.63;9.05;;;;;;;;;;5015806;28;20073;-80
2023/06/24 05:18:57;;;;;;;11.73;9.38;;;;;;;;;;5016532;28;20053;-81
2023/06/24 05:21:23;;;;;;;15.52;10.77;;;;;;;;;;5016009;28;20018;-81
2023/06/24 05:23:49;;;;;;;16.00;9.25;;;;;;;;;;5014759;28;20041;-81
2023/06/24 05:26:16;;;;;;;14.88;9.98;;;;;;;;;;5015132;28;20018;-80
2023/06/24 05:28:42;;;;;;;16.20;8.73;;;;;;;;;;5013927;28;20030;-79
2023/06/24 05:31:08;;;;;;;12.07;9.13;;;;;;;;;;5015741;28;20061;-80
2023/06/24 05:33:34;;;;;;;15.15;8.90;;;;;;;;;;5017045;28;20018;-80
2023/06/24 05:36:00;;;;;;;13.68;9.55;;;;;;;;;;5017275;28;20042;-79
2023/06/24 05:38:26;;;;;;;10.15;8.18;;;;;;;;;;5015728;28;20046;-80
2023/06/24 05:40:52;;;;;;;14.35;9.13;;;;;;;;;;5019010;28;20053;-80
2023/06/24 05:43:18;;;;;;;13.30;8.40;;;;;;;;;;5024373;28;20037;-80
2023/06/24 05:45:44;;;;;;;18.45;8.80;;;;;;;;;;5016311;28;20045;-80
2023/06/24 05:48:10;;;;;;;12.98;9.00;;;;;;;;;;5016296;28;20034;-80
2023/06/24 05:50:36;;;;;;;10.65;8.27;;;;;;;;;;5014821;28;20022;-80
2023/06/24 05:53:02;;;;;;;13.23;7.97;;;;;;;;;;5016105;28;20029;-80
2023/06/24 05:55:28;;;;;;;15.20;9.57;;;;;;;;;;5018428;28;20014;-80
2023/06/24 05:57:54;;;;;;;11.30;8.43;;;;;;;;;;5016318;28;20092;-80
2023/06/24 06:00:20;;;;;;;13.55;7.85;;;;;;;;;;5015583;28;20030;-80
2023/06/24 06:02:46;;;;;;;13.00;7.93;;;;;;;;;;5014306;28;20022;-79
2023/06/24 06:05:12;;;;;;;11.77;7.85;;;;;;;;;;5013576;28;20038;-79
2023/06/24 06:07:39;;;;;;;10.98;7.80;;;;;;;;;;5014227;28;20060;-80
2023/06/24 06:10:06;;;;;;;13.38;7.97;;;;;;;;;;5015397;28;20019;-81
2023/06/24 06:12:32;;;;;;;14.48;8.55;;;;;;;;;;5012646;28;20030;-80
2023/06/24 06:14:58;;;;;;;15.10;8.30;;;;;;;;;;5012001;28;20089;-80
2023/06/24 06:17:24;;;;;;;12.18;8.43;;;;;;;;;;5015409;28;20534;-80
2023/06/24 06:19:50;;;;;;;15.23;8.25;;;;;;;;;;5012477;28;20022;-80
2023/06/24 06:22:17;;;;;;;14.73;7.70;;;;;;;;;;5015196;28;20090;-80
2023/06/24 06:24:43;;;;;;;12.73;8.10;;;;;;;;;;5016749;28;20026;-80
2023/06/24 06:27:11;;;;;;;11.52;8.15;;;;;;;;;;5034816;28;20223;-80
2023/06/24 06:29:37;;;;;;;11.85;7.93;;;;;;;;;;5017132;28;20042;-80
2023/06/24 06:32:03;;;;;;;14.75;8.02;;;;;;;;;;5008305;28;20028;-80
2023/06/24 06:34:29;;;;;;;14.55;7.95;;;;;;;;;;5017426;28;20341;-80
2023/06/24 06:36:55;;;;;;;14.48;7.13;;;;;;;;;;5016754;28;20026;-80
2023/06/24 06:39:21;;;;;;;12.75;7.63;;;;;;;;;;5018312;28;20029;-80
2023/06/24 06:41:47;;;;;;;10.80;7.78;;;;;;;;;;5017579;28;20022;-80
2023/06/24 06:44:13;;;;;;;16.63;8.20;;;;;;;;;;5017139;28;20237;-80
2023/06/24 06:46:39;;;;;;;15.75;8.00;;;;;;;;;;5017250;28;20034;-79
2023/06/24 06:49:05;;;;;;;11.75;6.93;;;;;;;;;;5016674;28;20034;-81
2023/06/24 06:51:31;;;;;;;12.77;7.38;;;;;;;;;;5008647;28;20034;-80
2023/06/24 06:53:57;;;;;;;10.77;7.57;;;;;;;;;;5020663;28;20114;-80
2023/06/24 06:59:05;;;;;;;11.48;6.28;;;;;;;;;;5054961;23;20049;-80
2023/06/24 07:01:31;;;;;;;12.00;6.13;;;;;;;;;;5043198;28;20026;-79
2023/06/24 07:03:57;;;;;;;11.43;6.57;;;;;;;;;;5044320;28;20063;-80
2023/06/24 07:06:23;;;;;;;11.35;5.80;;;;;;;;;;5039262;28;20025;-80
2023/06/24 07:08:49;;;;;;;12.10;6.32;;;;;;;;;;5061477;28;20045;-80
2023/06/24 07:11:16;;;;;;;12.75;5.75;;;;;;;;;;5047038;28;20102;-80
2023/06/24 07:13:42;;;;;;;11.90;6.00;;;;;;;;;;5038588;28;20025;-80
2023/06/24 07:16:08;;;;;;;11.88;6.85;;;;;;;;;;5040031;28;20022;-80
2023/06/24 07:18:34;;;;;;;9.10;5.95;;;;;;;;;;5058545;28;20016;-80
2023/06/24 07:21:01;;;;;;;16.35;6.57;;;;;;;;;;5050043;28;20024;-79
2023/06/24 07:23:27;;;;;;;9.65;5.55;;;;;;;;;;5050631;28;20037;-79
2023/06/24 07:25:53;;;;;;;9.60;5.88;;;;;;;;;;5049236;28;20053;-79
2023/06/24 07:28:22;;;;;;;9.95;6.03;;;;;;;;;;5054023;28;20057;-78
2023/06/24 07:30:48;;;;;;;10.82;6.10;;;;;;;;;;5045806;28;20097;-79
2023/06/24 07:33:14;;;;;;;10.00;6.20;;;;;;;;;;5043567;28;20026;-79
2023/06/24 07:35:40;;;;;;;14.15;6.90;;;;;;;;;;5048345;28;20024;-80
2023/06/24 07:38:06;;;;;;;9.75;5.75;;;;;;;;;;5041258;28;20033;-79
2023/06/24 07:40:32;;;;;;;10.77;5.95;;;;;;;;;;5042248;28;20072;-79
2023/06/24 07:42:58;;;;;;;8.57;5.95;;;;;;;;;;5034868;28;20037;-82
2023/06/24 07:45:25;;;;;;;18.05;5.82;;;;;;;;;;5036520;28;20080;-82
2023/06/24 07:48:04;;;;;;;13.57;6.85;;;;;;;;;;5034998;28;20025;-80
2023/06/24 07:50:35;;;;;;;14.20;6.68;;;;;;;;;;5027163;28;20442;-83
2023/06/24 07:53:07;;;;;;;15.57;7.22;;;;;;;;;;5029240;28;20108;-83
2023/06/24 07:55:33;;;;;;;;;;;;;;;;;;5030730;28;20029;-86
2023/06/24 07:57:59;;;;;;;10.32;5.50;;;;;;;;;;5027725;28;19975;-83
2023/06/24 08:00:25;;;;;;;17.40;7.05;;;;;;;;;;5036694;28;21799;-83
2023/06/24 08:02:51;;;;;;;17.38;7.15;;;;;;;;;;5035153;28;20108;-83
2023/06/24 08:05:20;;;;;;;10.52;6.53;;;;;;;;;;5030842;28;20083;-83
2023/06/24 08:07:46;;;;;;;11.18;6.10;;;;;;;;;;5038399;28;20576;-84
2023/06/24 08:10:12;;;;;;;11.35;5.68;;;;;;;;;;5028412;28;20159;-85
2023/06/24 08:12:38;;;;;;;11.73;6.47;;;;;;;;;;5030635;28;20191;-85
2023/06/24 08:15:04;;;;;;;11.60;5.75;;;;;;;;;;5031586;28;20137;-85
2023/06/24 08:17:30;;;;;;;13.52;4.55;;;;;;;;;;5024409;28;20442;-84
2023/06/24 08:19:56;;;;;;;12.20;6.10;;;;;;;;;;5040629;28;20025;-78
2023/06/24 08:22:25;;;;;;;10.57;5.38;;;;;;;;;;5045537;28;20029;-79
2023/06/24 08:24:51;;;;;;;8.20;5.55;;;;;;;;;;5036406;28;20033;-82
2023/06/24 08:27:17;;;;;;;10.13;5.78;;;;;;;;;;5032699;28;20041;-84
2023/06/24 08:29:43;;;;;;;12.52;5.28;;;;;;;;;;5030134;28;20342;-82
2023/06/24 08:32:09;;;;;;;10.48;5.95;;;;;;;;;;5035602;28;20026;-81
2023/06/24 08:34:35;;;;;;;8.90;5.13;;;;;;;;;;5038341;28;20024;-82
2023/06/24 08:37:01;;;;;;;7.07;4.97;;;;;;;;;;5032826;28;20041;-85
2023/06/24 08:39:27;;;;;;;9.85;4.95;;;;;;;;;;5027825;28;20120;-85
2023/06/24 08:41:53;;;;;;;9.02;5.63;;;;;;;;;;5022480;28;20057;-85
2023/06/24 08:44:19;;;;;;;12.02;5.93;;;;;;;;;;5028968;28;20064;-83
2023/06/24 08:46:46;;;;;;;14.98;6.60;;;;;;;;;;5029399;28;20048;-85
2023/06/24 08:49:12;;;;;;;11.10;5.57;;;;;;;;;;5024994;28;20033;-85
2023/06/24 08:51:41;;;;;;;12.25;5.68;;;;;;;;;;5025845;28;20160;-88
2023/06/24 08:54:10;;;;;;;11.82;6.55;;;;;;;;;;5040506;28;20022;-88
2023/06/24 08:56:38;;;;;;;12.02;7.30;;;;;;;;;;5043812;28;20122;-89
2023/06/24 08:59:04;;;;;;;12.20;7.75;;;;;;;;;;5024028;28;21752;-87
2023/06/24 09:01:30;;;;;;;11.35;7.00;;;;;;;;;;5028809;28;20029;-86
2023/06/24 09:04:05;;;;;;;11.32;6.93;;;;;;;;;;5045568;28;20030;-83
2023/06/24 09:06:32;;;;;;;12.95;8.15;;;;;;;;;;5040446;28;20034;-86
2023/06/24 09:08:58;;;;;;;13.65;6.53;;;;;;;;;;5023180;28;20085;-90
2023/06/24 09:11:24;;;;;;;9.45;5.38;;;;;;;;;;5023549;28;20811;-87
2023/06/24 09:14:03;;;;;;;9.93;5.93;;;;;;;;;;5032461;28;20021;-87
2023/06/24 09:16:29;;;;;;;14.25;7.13;;;;;;;;;;5026718;28;20021;-90
2023/06/24 09:18:55;;;;;;;16.05;6.47;;;;;;;;;;5024131;28;20256;-89
2023/06/24 09:21:30;;;;;;;10.45;6.57;;;;;;;;;;5029711;28;20163;-88
2023/06/24 09:23:56;;;;;;;10.20;6.70;;;;;;;;;;5023133;28;20034;-87
2023/06/24 09:26:26;;;;;;;11.35;6.35;;;;;;;;;;5025408;28;20032;-89
2023/06/24 09:28:52;;;;;;;10.73;6.80;;;;;;;;;;5025285;28;20053;-88
2023/06/24 09:31:19;;;;;;;11.20;8.13;;;;;;;;;;5039849;28;20481;-88
2023/06/24 09:33:45;;;;;;;13.32;6.68;;;;;;;;;;5025644;28;20032;-87
2023/06/24 09:36:13;;;;;;;13.60;7.93;;;;;;;;;;5030156;28;20366;-86
2023/06/24 09:38:40;;;;;;;14.98;7.05;;;;;;;;;;5036458;28;20029;-86
2023/06/24 09:41:07;;;;;;;11.38;6.55;;;;;;;;;;5026053;28;20041;-85
2023/06/24 09:43:39;;;;;;;12.07;6.50;;;;;;;;;;5023288;28;20554;-88
2023/06/24 09:46:09;;;;;;;11.88;6.95;;;;;;;;;;5030122;28;20091;-88
2023/06/24 09:48:35;;;;;;;11.38;6.45;;;;;;;;;;5026727;28;20095;-88
2023/06/24 09:51:02;;;;;;;11.82;7.30;;;;;;;;;;5029617;28;20036;-88
2023/06/24 09:53:32;;;;;;;14.57;7.70;;;;;;;;;;5024998;28;20056;-87
2023/06/24 09:56:04;;;;;;;11.82;6.47;;;;;;;;;;5031018;28;20092;-89
2023/06/24 09:58:37;;;;;;;12.90;7.75;;;;;;;;;;5024757;28;20041;-90
2023/06/24 10:01:09;;;;;;;12.70;6.15;;;;;;;;;;5025223;28;20025;-91
2023/06/24 10:03:36;;;;;;;9.82;5.75;;;;;;;;;;5043603;28;20036;-87
2023/06/24 10:06:03;;;;;;;9.35;5.95;;;;;;;;;;5025529;28;20026;-89
2023/06/24 10:08:30;;;;;;;10.38;5.07;;;;;;;;;;5022580;28;20025;-88
2023/06/24 10:10:56;;;;;;;11.63;6.05;;;;;;;;;;5029557;28;20041;-90
2023/06/24 10:13:23;;;;;;;10.77;5.07;;;;;;;;;;5029953;28;20030;-86
2023/06/24 10:15:49;;;;;;;10.10;5.40;;;;;;;;;;5027100;28;20534;-87
2023/06/24 10:18:35;;;;;;;8.82;6.10;;;;;;;;;;5031742;28;20026;-89
2023/06/24 10:21:01;;;;;;;9.80;6.20;;;;;;;;;;5025397;28;20025;-89
2023/06/24 10:23:31;;;;;;;10.63;5.38;;;;;;;;;;5028614;28;20018;-87
2023/06/24 10:25:57;;;;;;;8.00;5.63;;;;;;;;;;5025643;28;20033;-88
2023/06/24 10:28:23;;;;;;;8.85;6.03;;;;;;;;;;5022866;28;20057;-90
2023/06/24 10:30:55;;;;;;;8.63;4.50;;;;;;;;;;5024022;28;20021;-90
2023/06/24 10:33:24;;;;;;;9.43;5.28;;;;;;;;;;5027011;28;20044;-89
2023/06/24 10:35:51;;;;;;;8.15;4.13;;;;;;;;;;5022968;28;20033;-90
2023/06/24 10:38:17;;;;;;;6.88;4.03;;;;;;;;;;5022860;28;20497;-89
2023/06/24 10:40:44;;;;;;;7.70;4.07;;;;;;;;;;5019444;28;20030;-90
2023/06/24 10:43:25;;;;;;;7.80;4.38;;;;;;;;;;5031107;28;20529;-85
2023/06/24 10:45:55;;;;;;;8.75;5.10;;;;;;;;;;5039874;28;20439;-90
2023/06/24 10:48:22;;;;;;;8.75;4.00;;;;;;;;;;5025796;28;20030;-87
2023/06/24 10:50:49;;;;;;;6.72;4.38;;;;;;;;;;5023765;28;20115;-88
2023/06/24 10:53:15;;;;;;;5.28;4.18;;;;;;;;;;5033704;28;20025;-89
2023/06/24 10:55:42;;;;;;;7.22;3.42;;;;;;;;;;5023990;28;20117;-90
2023/06/24 10:58:12;;;;;;;7.80;3.92;;;;;;;;;;5022471;28;20049;-90
2023/06/24 11:00:39;;;;;;;7.05;3.40;;;;;;;;;;5025103;28;20108;-88
2023/06/24 11:03:09;;;;;;;5.10;3.78;;;;;;;;;;5032965;28;20084;-87
2023/06/24 11:05:37;;;;;;;6.45;3.13;;;;;;;;;;5023353;28;20590;-89
2023/06/24 11:08:03;;;;;;;9.55;3.75;;;;;;;;;;5024557;28;20446;-89
2023/06/24 11:10:29;;;;;;;5.45;3.58;;;;;;;;;;5022314;28;20029;-89
2023/06/24 11:12:57;;;;;;;4.93;3.20;;;;;;;;;;5026982;28;20026;-88
2023/06/24 11:15:23;;;;;;;5.18;2.78;;;;;;;;;;5023958;28;20039;-88
2023/06/24 11:17:51;;;;;;;7.03;2.60;;;;;;;;;;5027803;28;20022;-88
2023/06/24 11:20:17;;;;;;;3.92;3.00;;;;;;;;;;5023768;28;20105;-89
2023/06/24 11:22:44;;;;;;;7.30;2.75;;;;;;;;;;5023747;28;20021;-88
2023/06/24 11:25:16;;;;;;;4.93;3.13;;;;;;;;;;5022951;28;20095;-89
2023/06/24 11:27:42;;;;;;;4.05;3.13;;;;;;;;;;5038047;28;21743;-87
2023/06/24 11:30:08;;;;;;;6.03;3.20;;;;;;;;;;5028391;28;20026;-89
2023/06/24 11:32:44;;;;;;;5.85;3.65;;;;;;;;;;5023938;28;20038;-88
2023/06/24 11:35:11;;;;;;;5.70;3.47;;;;;;;;;;5030813;28;20040;-88
2023/06/24 11:37:37;;;;;;;4.50;3.17;;;;;;;;;;5020243;28;20156;-86
2023/06/24 11:40:07;;;;;;;4.82;3.05;;;;;;;;;;5038748;28;20526;-87
2023/06/24 11:42:36;;;;;;;7.50;3.40;;;;;;;;;;5019537;28;20163;-88
2023/06/24 11:45:03;;;;;;;5.05;3.05;;;;;;;;;;5024761;28;20033;-88
2023/06/24 11:47:32;;;;;;;10.07;3.45;;;;;;;;;;5025675;28;20053;-88
2023/06/24 11:50:00;;;;;;;8.55;3.45;;;;;;;;;;5021513;28;20026;-88
2023/06/24 11:52:59;;;;;;;6.50;3.88;;;;;;;;;;5023782;28;20125;-88
2023/06/24 11:55:25;;;;;;;10.45;3.65;;;;;;;;;;5028800;28;20140;-88
2023/06/24 11:57:51;;;;;;;4.63;3.25;;;;;;;;;;5023870;28;20447;-87
2023/06/24 12:00:20;;;;;;;8.15;3.72;;;;;;;;;;5021537;28;20068;-86
2023/06/24 12:02:46;;;;;;;4.55;3.38;;;;;;;;;;5039688;28;20199;-89
2023/06/24 12:05:14;;;;;;;6.40;3.13;;;;;;;;;;5023429;28;20069;-88
2023/06/24 12:07:40;;;;;;;6.57;3.90;;;;;;;;;;5024466;28;20033;-86
2023/06/24 12:10:08;;;;;;;7.50;3.65;;;;;;;;;;5026327;28;20034;-86
2023/06/24 12:12:34;;;;;;;6.43;3.70;;;;;;;;;;5030050;28;20096;-88
2023/06/24 12:15:00;;;;;;;4.78;3.47;;;;;;;;;;5027395;28;20453;-87
2023/06/24 12:17:26;;;;;;;7.32;3.85;;;;;;;;;;5026396;28;20045;-88
2023/06/24 12:19:52;;;;;;;8.27;4.35;;;;;;;;;;5033111;28;20447;-86
2023/06/24 12:22:18;;;;;;;4.95;3.30;;;;;;;;;;5030023;28;20111;-88
2023/06/24 12:24:44;;;;;;;5.93;3.50;;;;;;;;;;5029229;28;20017;-87
2023/06/24 12:27:10;;;;;;;4.38;3.45;;;;;;;;;;5027072;28;20030;-87
2023/06/24 12:29:36;;;;;;;9.00;3.95;;;;;;;;;;5028268;28;20036;-89
2023/06/24 12:32:02;;;;;;;6.00;3.92;;;;;;;;;;5028210;28;20026;-87
2023/06/24 12:34:28;;;;;;;5.47;3.35;;;;;;;;;;5028826;28;20018;-87
2023/06/24 12:36:54;;;;;;;5.57;3.65;;;;;;;;;;5041641;28;20041;-87
2023/06/24 12:39:20;;;;;;;24.65;5.03;;;;;;;;;;5027101;28;20032;-85
2023/06/24 12:41:46;;;;;;;5.50;3.90;;;;;;;;;;5024694;28;20925;-87
2023/06/24 12:44:12;;;;;;;10.75;3.58;;;;;;;;;;5025838;28;20040;-89
2023/06/24 12:46:38;;;;;;;5.63;3.40;;;;;;;;;;5024340;28;20495;-89
2023/06/24 12:49:04;;;;;;;7.65;3.80;;;;;;;;;;5025018;28;20029;-88
2023/06/24 12:51:30;;;;;;;5.15;3.15;;;;;;;;;;5028686;28;20518;-87
2023/06/24 12:53:56;;;;;;;6.68;3.20;;;;;;;;;;5024098;28;20092;-88
2023/06/24 12:56:24;;;;;;;6.20;3.58;;;;;;;;;;5042794;28;20085;-88
2023/06/24 12:58:50;;;;;;;5.38;3.35;;;;;;;;;;5029086;28;20116;-87
2023/06/24 13:01:16;;;;;;;6.90;3.70;;;;;;;;;;5030485;28;20080;-89
2023/06/24 13:03:43;;;;;;;6.57;3.38;;;;;;;;;;5024034;28;20021;-84
2023/06/24 13:06:09;;;;;;;5.32;3.38;;;;;;;;;;5022507;28;20087;-87
2023/06/24 13:08:35;;;;;;;5.57;3.55;;;;;;;;;;5031410;28;20045;-87
2023/06/24 13:11:01;;;;;;;9.20;3.92;;;;;;;;;;5033749;28;20025;-86
2023/06/24 13:13:27;;;;;;;4.07;3.22;;;;;;;;;;5024444;28;20498;-89
2023/06/24 13:15:53;;;;;;;6.20;3.40;;;;;;;;;;5031847;28;20036;-86
2023/06/24 13:18:21;;;;;;;4.32;2.78;;;;;;;;;;5023809;28;20030;-88
2023/06/24 13:20:47;;;;;;;6.45;4.00;;;;;;;;;;5023326;28;20022;-87
2023/06/24 13:23:13;;;;;;;8.07;3.30;;;;;;;;;;5025293;28;20371;-88
2023/06/24 13:25:39;;;;;;;4.18;3.40;;;;;;;;;;5031961;28;20029;-88
2023/06/24 13:28:06;;;;;;;7.30;3.45;;;;;;;;;;5025816;28;20056;-88
2023/06/24 13:30:34;;;;;;;3.72;2.90;;;;;;;;;;5024328;28;20021;-87
2023/06/24 13:33:03;;;;;;;4.43;2.65;;;;;;;;;;5032222;28;20037;-87
2023/06/24 13:35:29;;;;;;;8.73;3.38;;;;;;;;;;5039738;28;20022;-87
2023/06/24 13:37:55;;;;;;;6.07;3.35;;;;;;;;;;5026801;28;20042;-86
2023/06/24 13:40:21;;;;;;;4.32;2.92;;;;;;;;;;5023308;28;20087;-84
2023/06/24 13:42:47;;;;;;;5.20;2.70;;;;;;;;;;5026439;28;20025;-85
2023/06/24 13:45:13;;;;;;;4.72;2.75;;;;;;;;;;5028305;28;20099;-87
2023/06/24 13:47:39;;;;;;;17.10;3.65;;;;;;;;;;5029897;28;20037;-88
2023/06/24 13:50:08;;;;;;;5.22;2.80;;;;;;;;;;5027101;28;20021;-87
2023/06/24 13:52:34;;;;;;;2.92;2.40;;;;;;;;;;5021471;28;20026;-89
2023/06/24 13:55:00;;;;;;;3.70;2.35;;;;;;;;;;5033892;28;20044;-88
2023/06/24 13:57:26;;;;;;;6.80;2.70;;;;;;;;;;5025692;28;20434;-87
2023/06/24 13:59:52;;;;;;;5.43;2.60;;;;;;;;;;5021943;28;20049;-87
2023/06/24 14:02:18;;;;;;;4.93;2.95;;;;;;;;;;5017705;28;20053;-87
2023/06/24 14:04:45;;;;;;;3.67;2.67;;;;;;;;;;5023723;28;20100;-86
2023/06/24 14:07:13;;;;;;;3.28;2.10;;;;;;;;;;5032048;28;20374;-86
2023/06/24 14:09:39;;;;;;;3.60;2.03;;;;;;;;;;5022367;28;20022;-86
2023/06/24 14:12:08;;;;;;;3.00;2.13;;;;;;;;;;5023114;28;20115;-91
2023/06/24 14:14:36;;;;;;;4.80;2.33;;;;;;;;;;5025819;28;20025;-86
2023/06/24 14:17:02;;;;;;;4.93;2.88;;;;;;;;;;5025542;28;20060;-86
2023/06/24 14:19:29;;;;;;;3.53;2.45;;;;;;;;;;5024412;28;20366;-87
2023/06/24 14:21:55;;;;;;;2.58;2.05;;;;;;;;;;5023689;28;20056;-86
2023/06/24 14:24:21;;;;;;;2.92;2.25;;;;;;;;;;5038860;28;20068;-87
2023/06/24 14:26:48;;;;;;;4.85;2.45;;;;;;;;;;5020481;28;20021;-88
2023/06/24 14:29:15;;;;;;;2.80;2.05;;;;;;;;;;5025929;28;20099;-85
2023/06/24 14:31:41;;;;;;;3.60;2.30;;;;;;;;;;5023963;28;20057;-85
2023/06/24 14:34:07;;;;;;;3.90;2.00;;;;;;;;;;5030747;28;20057;-84
2023/06/24 14:36:33;;;;;;;2.97;2.28;;;;;;;;;;5025250;28;20036;-90
2023/06/24 14:38:59;;;;;;;3.40;1.90;;;;;;;;;;5029925;28;20029;-86